Time;durP1;ratioP1;P1;durP2;ratioP2;P2;SDS_P1;SDS_P2;PMS_P1;PMS_P2;Temp;Humidity;BMP_temperature;BMP_pressure;BME280_temperature;BME280_humidity;BME280_pressure;Samples;Min_cycle;Max_cycle;Signal;HPM_P1;HPM_P2
2022/06/25 00:02:09;;;;;;;11.75;2.30;;;;;;;22.53;80.28;100043.34;5064762;28;20029;-84
2022/06/25 00:07:46;;;;;;;14.05;2.67;;;;;;;22.14;82.73;100040.69;5066924;28;20029;-85
2022/06/25 00:10:12;;;;;;;9.25;2.42;;;;;;;21.96;83.48;100051.78;5060811;28;20093;-85
2022/06/25 00:12:41;;;;;;;8.30;2.78;;;;;;;22.02;83.69;100049.94;5060435;28;20028;-87
2022/06/25 00:15:19;;;;;;;11.25;2.47;;;;;;;21.99;83.65;100051.28;5047211;28;20049;-86
2022/06/25 00:17:55;;;;;;;8.32;2.55;;;;;;;21.93;83.76;100060.38;5058136;28;20106;-84
2022/06/25 00:20:23;;;;;;;18.17;2.83;;;;;;;21.93;84.40;100060.38;5058153;28;20036;-85
2022/06/25 00:22:49;;;;;;;18.73;3.33;;;;;;;21.86;85.15;100064.25;5063061;28;20474;-86
2022/06/25 00:25:16;;;;;;;10.90;3.03;;;;;;;21.81;85.11;100051.50;5045601;22;20062;-84
2022/06/25 00:27:48;;;;;;;9.45;2.80;;;;;;;21.79;84.94;100053.63;4993986;28;20046;-84
2022/06/25 00:30:16;;;;;;;9.50;2.50;;;;;;;21.90;84.16;100065.44;4986381;28;20059;-85
2022/06/25 00:32:44;;;;;;;9.75;2.70;;;;;;;21.90;84.33;100066.25;4982861;28;20057;-86
2022/06/25 00:56:24;;;;;;;15.95;3.15;;;;;;;21.85;83.44;100074.22;4983403;28;20054;-86
2022/06/25 00:58:54;;;;;;;15.82;3.00;;;;;;;21.77;83.94;100068.44;4961344;28;20038;-86
2022/06/25 01:01:20;;;;;;;11.07;2.38;;;;;;;21.69;84.36;100071.53;4978420;28;20046;-84
2022/06/25 01:03:45;;;;;;;13.30;2.30;;;;;;;21.55;85.21;100079.94;4972623;28;20031;-85
2022/06/25 01:06:14;;;;;;;9.80;2.70;;;;;;;21.56;85.63;100070.00;4982325;28;20035;-85
2022/06/25 01:08:40;;;;;;;12.45;2.47;;;;;;;21.55;85.27;100069.16;4962387;28;20035;-87
2022/06/25 01:11:07;;;;;;;14.43;2.72;;;;;;;21.46;85.89;100064.41;4954143;28;20478;-85
2022/06/25 01:13:33;;;;;;;12.43;2.38;;;;;;;21.51;85.42;100072.63;4969724;28;20372;-85
2022/06/25 01:16:03;;;;;;;9.30;2.15;;;;;;;21.55;85.05;100074.56;4971252;28;20391;-85
2022/06/25 01:18:29;;;;;;;11.75;2.17;;;;;;;21.38;86.23;100068.31;4973307;28;20049;-85
2022/06/25 01:20:55;;;;;;;10.55;2.45;;;;;;;21.11;88.30;100073.50;4974498;28;20117;-84
2022/06/25 01:23:21;;;;;;;9.65;2.42;;;;;;;21.06;89.39;100061.78;4973547;28;20130;-85
2022/06/25 01:25:48;;;;;;;12.20;2.17;;;;;;;20.87;89.89;100063.88;4975025;28;20038;-83
2022/06/25 01:28:14;;;;;;;8.15;2.53;;;;;;;20.83;90.33;100070.78;4977281;28;20109;-84
2022/06/25 01:30:39;;;;;;;10.70;2.40;;;;;;;20.84;90.92;100072.44;4958926;28;20038;-85
2022/06/25 01:33:08;;;;;;;12.40;2.72;;;;;;;20.82;90.64;100068.31;4974747;28;20075;-84
2022/06/25 01:35:34;;;;;;;9.38;2.40;;;;;;;20.67;92.11;100076.13;4972746;28;20038;-82
2022/06/25 01:38:02;;;;;;;10.82;2.33;;;;;;;20.65;92.98;100078.25;4957352;28;20023;-83
2022/06/25 01:40:34;;;;;;;11.50;2.28;;;;;;;20.60;92.84;100071.69;4974300;28;20039;-83
2022/06/25 01:43:00;;;;;;;11.82;2.65;;;;;;;20.71;92.39;100070.03;4974351;28;20031;-82
2022/06/25 01:45:36;;;;;;;8.90;3.17;;;;;;;20.87;91.12;100077.34;4958266;28;20051;-83
2022/06/25 01:48:04;;;;;;;10.00;2.30;;;;;;;20.90;90.82;100076.88;4974453;28;20043;-83
2022/06/25 01:50:31;;;;;;;10.88;2.22;;;;;;;20.91;90.75;100083.88;4956667;28;20035;-82
2022/06/25 01:52:57;;;;;;;10.43;2.17;;;;;;;20.94;90.50;100086.09;4974185;28;20510;-84
2022/06/25 01:55:23;;;;;;;16.50;2.47;;;;;;;20.99;89.92;100086.19;4973902;28;20038;-83
2022/06/25 01:57:50;;;;;;;12.20;2.78;;;;;;;21.10;89.14;100092.63;4956566;28;20083;-83
2022/06/25 02:00:22;;;;;;;9.07;2.50;;;;;;;21.12;88.79;100096.72;4972978;28;20112;-83
2022/06/25 02:02:55;;;;;;;11.40;2.85;;;;;;;21.09;89.15;100085.56;4941544;28;20034;-83
2022/06/25 02:05:56;;;;;;;13.02;2.40;;;;;;;21.04;89.39;100080.91;4972729;28;20046;-84
2022/06/25 02:08:13;;;;;;;10.05;2.30;;;;;;;21.11;89.21;100089.69;4973926;28;20058;-82
2022/06/25 02:10:40;;;;;;;7.15;2.05;;;;;;;21.12;89.00;100085.09;4976032;28;20042;-82
2022/06/25 02:13:06;;;;;;;10.23;2.38;;;;;;;21.08;89.37;100084.75;4974701;28;20492;-84
2022/06/25 02:15:34;;;;;;;13.82;2.08;;;;;;;20.94;89.89;100088.81;4984038;28;20031;-81
2022/06/25 02:18:02;;;;;;;11.55;2.50;;;;;;;20.90;90.64;100090.34;4972199;28;20069;-82
2022/06/25 02:20:28;;;;;;;9.20;2.92;;;;;;;20.91;90.84;100083.88;4997211;28;20031;-85
2022/06/25 02:22:55;;;;;;;11.65;2.90;;;;;;;20.95;90.31;100085.03;4971906;28;20047;-82
2022/06/25 02:25:21;;;;;;;7.38;2.65;;;;;;;21.05;89.70;100087.91;4956091;28;20121;-83
2022/06/25 02:27:46;;;;;;;9.18;2.38;;;;;;;21.06;89.98;100086.88;4955380;28;20031;-81
2022/06/25 02:30:12;;;;;;;11.05;2.50;;;;;;;21.08;89.43;100081.22;4972856;28;20506;-82
2022/06/25 02:32:37;;;;;;;9.00;2.13;;;;;;;21.14;88.92;100083.81;4973233;28;20038;-82
2022/06/25 02:35:04;;;;;;;6.45;2.00;;;;;;;21.20;88.66;100092.81;4971921;28;20046;-84
2022/06/25 02:37:29;;;;;;;13.30;2.50;;;;;;;21.25;88.27;100078.59;4956029;28;20022;-84
2022/06/25 02:39:56;;;;;;;11.75;2.50;;;;;;;21.25;88.22;100084.00;4971840;28;20039;-85
2022/06/25 02:42:22;;;;;;;8.02;2.35;;;;;;;21.22;88.54;100090.69;4940021;28;20464;-83
2022/06/25 02:44:48;;;;;;;14.93;2.80;;;;;;;21.16;89.05;100085.44;4956178;28;20046;-84
2022/06/25 02:47:14;;;;;;;12.25;2.72;;;;;;;21.09;88.93;100081.03;4956153;28;20027;-83
2022/06/25 02:49:56;;;;;;;9.57;2.97;;;;;;;21.01;89.79;100072.50;4972015;28;20031;-84
2022/06/25 02:52:22;;;;;;;11.13;2.72;;;;;;;20.91;90.54;100072.28;4971327;28;20062;-83
2022/06/25 02:54:48;;;;;;;8.50;2.55;;;;;;;20.86;90.73;100074.88;4973279;28;20068;-84
2022/06/25 03:00:00;;;;;;;12.32;2.92;;;;;;;20.56;92.93;100085.84;4955748;28;20130;-84
2022/06/25 03:02:27;;;;;;;9.98;2.58;;;;;;;20.51;93.26;100088.47;4939789;28;20046;-83
2022/06/25 03:04:53;;;;;;;11.20;2.67;;;;;;;20.57;92.99;100077.56;4972480;28;20035;-82
2022/06/25 03:07:19;;;;;;;9.75;2.75;;;;;;;20.54;92.52;100082.59;4958554;28;20034;-83
2022/06/25 03:09:44;;;;;;;8.23;2.45;;;;;;;20.36;93.56;100075.47;4956207;28;20047;-83
2022/06/25 03:12:12;;;;;;;7.82;2.40;;;;;;;20.13;95.86;100086.22;4971457;28;20064;-84
2022/06/25 03:14:39;;;;;;;15.10;2.63;;;;;;;20.04;97.15;100077.72;4971763;28;20039;-85
2022/06/25 03:17:06;;;;;;;15.32;3.17;;;;;;;20.08;96.70;100078.84;4955532;28;20491;-84
2022/06/25 03:19:51;;;;;;;10.38;2.45;;;;;;;20.00;97.46;100087.28;4972826;28;20046;-82
2022/06/25 03:22:25;;;;;;;8.80;2.55;;;;;;;20.01;97.07;100088.94;4955151;28;20099;-82
2022/06/25 03:24:51;;;;;;;12.98;3.08;;;;;;;19.95;97.71;100095.22;4955621;28;20403;-85
2022/06/25 03:27:16;;;;;;;10.30;3.05;;;;;;;19.92;98.11;100106.47;4955574;28;20045;-84
2022/06/25 03:29:45;;;;;;;14.57;3.60;;;;;;;20.06;97.38;100099.81;4956335;28;20026;-82
2022/06/25 03:32:10;;;;;;;9.20;3.20;;;;;;;20.06;97.60;100102.50;4955403;28;20502;-83
2022/06/25 03:34:58;;;;;;;10.10;3.28;;;;;;;19.94;99.10;100108.94;4955118;28;20034;-83
2022/06/25 03:37:24;;;;;;;14.07;3.58;;;;;;;19.90;99.49;100113.13;4972712;28;20045;-82
2022/06/25 03:39:49;;;;;;;11.77;2.97;;;;;;;20.00;98.87;100114.19;4972672;28;20507;-84
2022/06/25 03:42:15;;;;;;;10.75;3.22;;;;;;;19.99;99.72;100111.72;4955056;28;20395;-84
2022/06/25 03:44:54;;;;;;;12.95;3.05;;;;;;;20.05;98.64;100106.22;4971707;28;20047;-85
2022/06/25 03:47:26;;;;;;;;;;;;;;;20.10;98.08;100105.53;4955551;28;20047;-88
2022/06/25 03:49:53;;;;;;;10.57;2.90;;;;;;;20.06;98.30;100110.56;4971360;28;19965;-85
2022/06/25 03:52:21;;;;;;;12.18;3.10;;;;;;;20.07;98.53;100109.53;4955704;28;20039;-88
2022/06/25 03:54:47;;;;;;;11.00;3.22;;;;;;;20.08;98.27;100110.34;4973594;28;20053;-83
2022/06/25 03:57:12;;;;;;;15.20;3.10;;;;;;;20.03;98.95;100108.34;4955331;28;20491;-82
2022/06/25 04:00:00;;;;;;;10.07;3.25;;;;;;;20.10;99.49;100114.44;4970832;28;20070;-82
2022/06/25 04:02:38;;;;;;;13.70;3.28;;;;;;;20.17;98.99;100113.50;4971819;28;20042;-84
2022/06/25 04:05:42;;;;;;;11.77;2.90;;;;;;;20.32;98.22;100112.00;4913214;29;20044;-86
2022/06/25 04:08:25;;;;;;;7.38;3.20;;;;;;;20.41;97.91;100120.53;4897689;29;20040;-83
2022/06/25 04:10:54;;;;;;;12.85;3.65;;;;;;;20.47;97.43;100128.50;4896954;28;20457;-88
2022/06/25 04:13:20;;;;;;;8.77;3.13;;;;;;;20.49;97.23;100133.63;4913722;29;20139;-80
2022/06/25 04:15:46;;;;;;;12.43;3.22;;;;;;;20.52;96.49;100133.16;4896691;28;20127;-84
2022/06/25 04:18:13;;;;;;;11.70;3.55;;;;;;;20.32;98.26;100124.63;4896518;29;20429;-82
2022/06/25 04:20:40;;;;;;;17.15;3.50;;;;;;;20.29;98.66;100133.16;4896038;28;20120;-82
2022/06/25 04:23:06;;;;;;;17.33;3.50;;;;;;;20.22;99.30;100133.25;4896377;29;20156;-82
2022/06/25 04:25:33;;;;;;;7.93;3.03;;;;;;;20.19;99.40;100135.59;4896219;29;20549;-82
2022/06/25 04:30:43;;;;;;;9.13;3.00;;;;;;;20.47;98.27;100147.34;4897142;29;20449;-83
2022/06/25 04:33:08;;;;;;;13.15;3.20;;;;;;;20.73;95.77;100146.00;4898845;29;20047;-83
2022/06/25 04:35:46;;;;;;;9.85;3.55;;;;;;;20.82;95.62;100152.66;4909985;28;20043;-82
2022/06/25 04:38:43;;;;;;;10.20;3.03;;;;;;;20.98;94.23;100151.13;4976235;28;20043;-80
2022/06/25 04:41:09;;;;;;;8.18;2.92;;;;;;;21.00;94.25;100163.28;4983316;28;20042;-82
2022/06/25 04:43:36;;;;;;;9.98;3.45;;;;;;;20.91;93.82;100163.91;4966895;28;20023;-82
2022/06/25 04:46:06;;;;;;;13.73;3.42;;;;;;;20.99;93.67;100166.19;4976306;28;20035;-84
2022/06/25 04:48:36;;;;;;;10.43;2.72;;;;;;;21.08;92.93;100170.16;4977677;28;20035;-81
2022/06/25 04:51:18;;;;;;;7.57;2.50;;;;;;;21.02;92.95;100174.63;4958242;28;20039;-85
2022/06/25 04:53:56;;;;;;;13.02;2.92;;;;;;;21.12;92.27;100188.34;4960190;28;20042;-82
2022/06/25 04:56:37;;;;;;;13.25;2.92;;;;;;;21.42;90.36;100188.13;4975973;28;20061;-82
2022/06/25 04:59:03;;;;;;;11.23;3.53;;;;;;;21.52;89.85;100184.78;4958715;28;20038;-83
2022/06/25 05:01:47;;;;;;;10.05;3.15;;;;;;;21.72;88.71;100181.63;4976295;28;20102;-83
2022/06/25 05:04:13;;;;;;;20.02;3.05;;;;;;;21.64;89.39;100185.56;4959400;28;20039;-81
2022/06/25 05:06:39;;;;;;;14.82;3.30;;;;;;;21.64;89.63;100185.56;4959485;28;20041;-88
2022/06/25 05:09:04;;;;;;;13.43;3.50;;;;;;;21.71;89.77;100182.72;4958797;28;20081;-81
2022/06/25 05:11:34;;;;;;;14.10;3.30;;;;;;;21.89;88.05;100188.72;4976995;28;20038;-83
2022/06/25 05:14:00;;;;;;;18.50;3.05;;;;;;;22.04;87.27;100191.69;4977044;28;20035;-84
2022/06/25 05:16:26;;;;;;;17.90;2.92;;;;;;;22.06;86.61;100191.44;4960208;28;20410;-80
2022/06/25 05:18:52;;;;;;;10.15;3.17;;;;;;;22.06;87.17;100186.88;4959253;28;20041;-81
2022/06/25 05:21:18;;;;;;;9.30;2.67;;;;;;;22.11;87.10;100184.25;4974941;28;20045;-82
2022/06/25 05:23:44;;;;;;;11.20;3.08;;;;;;;22.23;86.54;100189.56;4961966;28;20073;-83
2022/06/25 05:26:09;;;;;;;9.23;2.80;;;;;;;22.33;85.85;100191.59;4963640;28;20027;-80
2022/06/25 05:28:35;;;;;;;9.50;3.00;;;;;;;22.46;85.82;100189.38;4964050;28;20083;-82
2022/06/25 05:31:01;;;;;;;13.10;2.95;;;;;;;22.60;84.67;100196.03;4963803;28;20467;-81
2022/06/25 05:33:27;;;;;;;14.38;2.53;;;;;;;22.78;83.84;100191.47;4980659;28;20038;-81
2022/06/25 05:35:53;;;;;;;10.10;2.85;;;;;;;22.92;82.96;100193.56;4979817;28;20046;-81
2022/06/25 05:38:19;;;;;;;14.13;2.83;;;;;;;22.97;83.02;100190.09;4976180;28;20368;-82
2022/06/25 05:40:44;;;;;;;9.73;3.20;;;;;;;23.10;82.91;100195.16;4957454;28;20039;-82
2022/06/25 05:43:10;;;;;;;11.18;2.63;;;;;;;23.25;81.68;100191.78;4975678;28;20035;-81
2022/06/25 05:45:36;;;;;;;8.82;2.72;;;;;;;23.29;81.87;100192.91;4975582;28;20031;-81
2022/06/25 05:48:02;;;;;;;13.60;2.97;;;;;;;23.50;80.29;100195.63;4975174;28;20119;-83
2022/06/25 05:50:29;;;;;;;6.82;2.03;;;;;;;23.58;80.46;100188.94;4974924;28;20027;-83
2022/06/25 05:52:55;;;;;;;10.57;2.90;;;;;;;23.79;79.73;100188.06;4987927;28;20096;-87
2022/06/25 05:55:22;;;;;;;12.98;2.90;;;;;;;24.01;78.22;100186.09;4981772;28;20026;-81
2022/06/25 05:57:48;;;;;;;10.00;2.42;;;;;;;24.25;74.34;100202.03;4974414;28;20380;-83
2022/06/25 06:00:17;;;;;;;8.55;2.20;;;;;;;24.49;73.21;100204.09;4980199;28;20035;-82
2022/06/25 06:02:52;;;;;;;9.05;2.03;;;;;;;24.80;70.60;100209.69;4981240;28;20042;-81
2022/06/25 06:05:18;;;;;;;9.00;2.20;;;;;;;25.00;68.31;100213.34;4977002;28;20038;-84
2022/06/25 06:07:45;;;;;;;7.72;2.03;;;;;;;25.18;67.36;100214.81;4980480;28;20034;-85
2022/06/25 06:10:11;;;;;;;9.50;1.80;;;;;;;25.36;66.38;100216.19;4964536;28;20038;-83
2022/06/25 06:12:49;;;;;;;11.85;1.90;;;;;;;25.52;65.20;100223.38;4977841;28;20038;-86
2022/06/25 06:15:15;;;;;;;8.45;1.77;;;;;;;25.77;63.51;100214.44;4986586;28;20035;-85
2022/06/25 06:17:43;;;;;;;8.02;1.88;;;;;;;25.84;63.65;100223.97;4976994;28;20027;-82
2022/06/25 06:20:09;;;;;;;12.50;2.10;;;;;;;26.00;63.33;100228.31;4971549;28;20031;-83
2022/06/25 06:22:35;;;;;;;15.18;2.10;;;;;;;25.95;62.88;100228.31;4965739;28;20582;-82
2022/06/25 06:25:00;;;;;;;8.43;1.50;;;;;;;25.93;61.65;100225.06;4979144;28;20036;-84
2022/06/25 06:27:26;;;;;;;12.02;1.90;;;;;;;26.00;61.57;100233.75;4974542;28;20110;-82
2022/06/25 06:29:52;;;;;;;4.65;1.38;;;;;;;26.36;60.53;100247.38;4959774;28;20043;-83
2022/06/25 06:32:17;;;;;;;5.40;1.65;;;;;;;26.66;59.06;100245.44;4958296;28;20479;-82
2022/06/25 06:34:44;;;;;;;8.98;1.50;;;;;;;26.76;58.87;100247.34;4972084;28;20077;-84
2022/06/25 06:37:09;;;;;;;11.70;1.90;;;;;;;27.23;57.46;100249.69;4978174;28;20035;-83
2022/06/25 06:39:36;;;;;;;8.45;1.92;;;;;;;27.42;55.77;100255.28;4971964;28;20039;-86
2022/06/25 06:42:01;;;;;;;7.70;1.70;;;;;;;27.35;55.67;100262.94;4967370;28;20111;-84
2022/06/25 06:44:27;;;;;;;7.05;1.60;;;;;;;27.49;55.97;100258.56;4969230;28;20784;-88
2022/06/25 06:46:52;;;;;;;4.45;1.92;;;;;;;27.54;56.00;100255.84;4968537;28;20066;-90
2022/06/25 06:49:18;;;;;;;10.02;2.05;;;;;;;27.58;56.37;100262.31;4970658;28;20030;-87
2022/06/25 06:51:44;;;;;;;8.98;2.25;;;;;;;27.57;55.89;100249.81;4971095;28;20494;-84
2022/06/25 06:54:09;;;;;;;7.32;2.10;;;;;;;27.55;56.25;100257.44;4950148;28;20035;-85
2022/06/25 06:56:35;;;;;;;9.73;2.13;;;;;;;27.77;56.24;100247.00;4967066;28;20035;-84
2022/06/25 06:59:00;;;;;;;5.65;1.70;;;;;;;28.44;54.35;100253.59;4971304;28;20461;-89
2022/06/25 07:01:26;;;;;;;10.23;2.53;;;;;;;28.44;54.12;100250.88;4977432;28;20035;-86
2022/06/25 07:03:53;;;;;;;9.40;1.80;;;;;;;28.41;53.24;100259.59;4972489;28;20054;-85
2022/06/25 07:06:19;;;;;;;10.77;2.10;;;;;;;28.30;53.51;100248.00;4972422;28;20369;-88
2022/06/25 07:08:44;;;;;;;9.80;2.08;;;;;;;28.69;52.09;100251.47;4968933;28;20037;-84
2022/06/25 07:11:30;;;;;;;4.10;1.73;;;;;;;28.59;51.61;100256.19;4974242;28;20023;-88
2022/06/25 07:14:00;;;;;;;9.05;1.92;;;;;;;29.11;50.25;100258.09;4970386;28;20062;-85
2022/06/25 07:16:29;;;;;;;6.35;1.83;;;;;;;29.10;50.19;100253.78;4980366;28;20027;-84
2022/06/25 07:18:57;;;;;;;9.65;2.50;;;;;;;29.07;50.64;100251.59;4969953;28;20027;-84
2022/06/25 07:21:24;;;;;;;11.18;2.15;;;;;;;29.22;50.22;100254.97;4942827;28;20483;-81
2022/06/25 07:23:50;;;;;;;8.15;2.42;;;;;;;29.07;50.98;100246.13;4968224;28;20124;-88
2022/06/25 07:26:20;;;;;;;11.15;3.25;;;;;;;29.22;51.14;100244.06;4986316;28;20032;-89
2022/06/25 07:28:46;;;;;;;10.35;3.17;;;;;;;29.32;50.22;100247.78;4972502;28;20030;-85
2022/06/25 07:31:12;;;;;;;13.20;3.20;;;;;;;29.30;50.69;100250.00;4971048;28;20037;-84
2022/06/25 07:33:38;;;;;;;9.50;2.90;;;;;;;29.48;50.24;100254.69;4943077;28;20039;-90
2022/06/25 07:36:04;;;;;;;7.88;3.15;;;;;;;29.77;49.73;100244.44;4992867;28;20463;-84
2022/06/25 07:38:30;;;;;;;12.18;3.17;;;;;;;29.69;49.06;100247.84;4957291;28;20521;-87
2022/06/25 07:40:55;;;;;;;16.23;3.08;;;;;;;30.13;48.19;100253.75;4976578;28;20039;-86
2022/06/25 07:43:21;;;;;;;14.10;2.78;;;;;;;30.48;47.94;100246.09;4973535;28;20026;-88
2022/06/25 07:45:46;;;;;;;10.82;2.95;;;;;;;30.22;48.68;100249.25;4981774;28;20476;-85
2022/06/25 07:48:12;;;;;;;12.55;2.90;;;;;;;30.07;47.90;100249.47;4966709;28;20041;-89
2022/06/25 07:53:28;;;;;;;9.02;2.78;;;;;;;30.42;47.12;100253.59;4979975;28;20510;-89
2022/06/25 07:55:58;;;;;;;9.15;2.50;;;;;;;30.69;46.95;100261.03;4988895;28;20035;-89
2022/06/25 07:58:24;;;;;;;10.85;2.47;;;;;;;31.01;45.76;100258.25;5017714;28;20035;-91
2022/06/25 08:01:03;;;;;;;8.32;2.40;;;;;;;30.89;45.62;100260.63;4984227;28;20038;-91
2022/06/25 08:03:29;;;;;;;7.68;2.38;;;;;;;30.89;45.66;100268.84;5002516;22;20123;-92
2022/06/25 08:09:04;;;;;;;11.98;2.10;;;;;;;31.59;43.50;100263.09;1227933;26;20130;-89
2022/06/25 08:11:37;;;;;;;8.25;2.50;;;;;;;32.00;41.95;100272.03;4987719;22;20047;-92
2022/06/25 08:14:07;;;;;;;8.75;2.45;;;;;;;31.26;43.59;100265.13;4965930;28;20035;-92
2022/06/25 08:16:33;;;;;;;14.65;2.75;;;;;;;31.23;44.63;100269.31;5000730;28;20039;-90
2022/06/25 08:18:59;;;;;;;10.85;2.95;;;;;;;31.10;44.37;100255.63;5002645;28;20042;-90
2022/06/25 08:21:28;;;;;;;7.43;2.22;;;;;;;31.30;44.57;100262.59;4997580;28;20025;-89
2022/06/25 08:23:54;;;;;;;12.70;2.42;;;;;;;32.03;43.23;100254.97;4995329;28;20061;-90
2022/06/25 08:26:28;;;;;;;10.30;2.25;;;;;;;31.88;43.12;100266.31;4974258;28;20063;-90
2022/06/25 08:28:56;;;;;;;9.85;2.75;;;;;;;32.61;41.55;100257.69;4988773;22;20046;-91
2022/06/25 08:31:25;;;;;;;14.60;2.65;;;;;;;32.58;41.27;100257.50;4974830;28;20199;-89
2022/06/25 08:33:51;;;;;;;11.13;2.20;;;;;;;32.64;41.24;100262.53;4973914;28;20091;-91
2022/06/25 08:36:18;;;;;;;11.65;2.70;;;;;;;32.38;42.03;100258.00;4979797;28;20083;-89
2022/06/25 08:38:45;;;;;;;14.50;2.25;;;;;;;32.54;42.31;100253.72;4966838;28;20103;-90
2022/06/25 08:41:10;;;;;;;9.73;2.33;;;;;;;32.09;43.23;100247.44;4968386;28;20503;-89
2022/06/25 08:43:36;;;;;;;12.52;3.10;;;;;;;32.01;42.82;100248.19;4985333;28;20050;-88
2022/06/25 08:46:03;;;;;;;12.68;2.92;;;;;;;32.32;42.79;100256.50;4989631;28;20039;-88
2022/06/25 08:48:34;;;;;;;9.95;2.67;;;;;;;32.18;42.12;100243.63;4977801;28;20031;-92
2022/06/25 08:51:03;;;;;;;9.02;2.72;;;;;;;32.16;42.76;100245.91;4972559;28;20034;-89
2022/06/25 08:53:34;;;;;;;16.10;3.13;;;;;;;32.43;41.91;100253.19;4985683;28;20027;-89
2022/06/25 08:56:03;;;;;;;11.82;3.15;;;;;;;32.45;42.40;100248.16;4981512;28;20115;-86
2022/06/25 08:58:29;;;;;;;8.60;2.92;;;;;;;32.50;43.15;100245.31;4985831;28;20039;-90
2022/06/25 09:00:55;;;;;;;21.25;3.97;;;;;;;32.57;42.73;100245.72;4990748;28;20123;-88
2022/06/25 09:03:21;;;;;;;16.80;3.03;;;;;;;32.57;42.54;100240.22;4960822;28;20027;-90
2022/06/25 09:05:46;;;;;;;11.35;2.90;;;;;;;32.96;41.42;100247.66;4959484;28;20118;-88
2022/06/25 09:08:16;;;;;;;11.32;2.90;;;;;;;32.37;42.81;100250.88;4976308;28;20438;-87
2022/06/25 09:10:43;;;;;;;9.93;3.05;;;;;;;32.32;42.94;100237.31;4981562;28;20050;-88
2022/06/25 09:13:12;;;;;;;13.93;3.17;;;;;;;32.40;43.29;100240.09;4981650;28;20037;-86
2022/06/25 09:15:44;;;;;;;15.38;2.35;;;;;;;32.82;41.79;100241.47;4967869;28;20047;-87
2022/06/25 09:18:12;;;;;;;11.63;2.70;;;;;;;32.88;41.95;100240.19;4957023;28;20475;-88
2022/06/25 09:20:59;;;;;;;13.75;2.88;;;;;;;32.19;43.17;100238.97;4980806;28;20031;-87
2022/06/25 09:23:33;;;;;;;12.52;3.42;;;;;;;31.65;44.67;100237.22;4967371;28;20042;-90
2022/06/25 09:26:07;;;;;;;12.07;3.55;;;;;;;31.49;44.73;100241.38;4956816;28;20055;-89
2022/06/25 09:28:36;;;;;;;11.60;3.78;;;;;;;31.80;44.47;100228.66;4980425;28;20043;-91
2022/06/25 09:31:02;;;;;;;14.70;3.28;;;;;;;32.39;42.97;100234.91;4977211;28;20027;-89
2022/06/25 09:33:30;;;;;;;14.13;2.95;;;;;;;32.40;42.45;100236.53;4984841;28;20102;-89
2022/06/25 09:35:55;;;;;;;10.80;2.90;;;;;;;32.54;41.49;100229.03;4987545;28;20031;-90
2022/06/25 09:38:22;;;;;;;17.58;3.10;;;;;;;32.48;42.41;100224.81;4997710;28;20031;-92
2022/06/25 09:41:00;;;;;;;8.57;2.55;;;;;;;33.00;41.76;100225.88;4988530;28;20125;-91
2022/06/25 09:43:36;;;;;;;15.85;3.47;;;;;;;32.73;42.14;100221.41;4982455;28;20727;-92
2022/06/25 09:46:06;;;;;;;12.77;3.30;;;;;;;32.69;42.31;100223.16;4967042;28;20027;-90
2022/06/25 09:48:34;;;;;;;12.13;3.50;;;;;;;32.33;42.44;100226.00;4976970;28;20061;-89
2022/06/25 09:51:23;;;;;;;11.50;3.35;;;;;;;31.83;43.23;100219.81;4980381;28;20035;-91
2022/06/25 09:53:50;;;;;;;14.80;2.90;;;;;;;31.71;44.72;100227.78;4985738;28;20030;-83
2022/06/25 09:56:36;;;;;;;15.70;3.55;;;;;;;31.84;44.42;100206.91;4975858;28;20125;-80
2022/06/25 09:59:01;;;;;;;16.13;3.53;;;;;;;31.38;45.08;100213.41;4978119;28;20447;-84
2022/06/25 10:01:30;;;;;;;15.70;3.78;;;;;;;31.45;45.23;100224.75;4978357;28;20161;-84
2022/06/25 10:03:58;;;;;;;10.77;2.78;;;;;;;31.50;45.14;100216.44;4966595;28;20496;-82
2022/06/25 10:06:24;;;;;;;11.43;3.13;;;;;;;31.19;46.13;100216.25;4972235;28;20040;-81
2022/06/25 10:08:55;;;;;;;15.07;3.70;;;;;;;30.91;46.79;100225.59;4977692;28;20037;-85
2022/06/25 10:11:24;;;;;;;11.65;2.97;;;;;;;31.05;46.22;100215.47;4976552;28;20059;-84
2022/06/25 10:14:12;;;;;;;9.68;2.90;;;;;;;31.13;45.88;100211.19;4987775;28;20038;-91
2022/06/25 10:16:38;;;;;;;20.70;5.05;;;;;;;30.97;45.93;100213.44;4942817;28;20031;-91
2022/06/25 10:19:08;;;;;;;17.75;2.60;;;;;;;30.98;45.84;100206.88;4947972;28;20112;-89
2022/06/25 10:21:44;;;;;;;7.05;2.60;;;;;;;30.95;46.24;100204.72;4980569;28;20047;-91
2022/06/25 10:24:15;;;;;;;12.40;2.53;;;;;;;30.95;46.55;100204.72;4967814;28;20092;-84
2022/06/25 10:26:41;;;;;;;14.10;2.85;;;;;;;31.26;45.96;100199.41;4975474;28;20109;-88
2022/06/25 10:29:32;;;;;;;14.10;3.35;;;;;;;31.79;45.09;100191.38;4974116;28;20030;-86
2022/06/25 10:32:18;;;;;;;11.82;2.92;;;;;;;32.43;43.08;100194.75;4964018;28;20065;-88
2022/06/25 10:34:53;;;;;;;9.48;3.00;;;;;;;32.88;41.55;100190.78;4988968;28;20038;-88
2022/06/25 10:37:19;;;;;;;11.98;2.25;;;;;;;32.72;41.24;100187.66;4981380;28;20056;-89
2022/06/25 10:39:54;;;;;;;8.77;2.67;;;;;;;32.86;40.83;100187.53;4982317;28;20463;-89
2022/06/25 10:45:15;;;;;;;12.40;2.83;;;;;;;32.10;42.99;100191.50;4988145;28;20034;-89
2022/06/25 10:47:46;;;;;;;12.75;3.33;;;;;;;32.34;41.42;100185.66;4953331;28;20449;-90
2022/06/25 10:50:25;;;;;;;16.27;3.40;;;;;;;31.77;42.21;100185.41;4977558;28;20050;-86
2022/06/25 10:53:05;;;;;;;11.82;2.92;;;;;;;31.87;42.53;100187.91;4977213;28;20121;-88
2022/06/25 10:55:46;;;;;;;14.60;3.83;;;;;;;32.46;41.05;100183.13;4966850;28;20035;-88
2022/06/25 10:58:23;;;;;;;8.88;2.13;;;;;;;32.89;40.24;100183.34;4974194;28;20034;-89
2022/06/25 11:00:54;;;;;;;12.05;2.42;;;;;;;33.23;38.99;100187.03;4991452;28;20033;-89
2022/06/25 11:03:32;;;;;;;15.32;3.28;;;;;;;33.07;39.49;100183.09;4960633;28;20041;-88
2022/06/25 11:06:00;;;;;;;10.90;2.08;;;;;;;32.94;40.32;100184.03;4958083;28;20050;-88
2022/06/25 11:08:33;;;;;;;7.80;2.25;;;;;;;32.95;40.22;100185.63;4986683;28;20026;-89
2022/06/25 11:10:59;;;;;;;17.80;2.47;;;;;;;33.59;38.72;100178.50;4987594;28;20038;-91
2022/06/25 11:13:25;;;;;;;9.05;1.90;;;;;;;34.04;37.80;100178.19;4982477;28;20031;-90
2022/06/25 11:15:51;;;;;;;8.85;2.13;;;;;;;34.65;36.07;100187.91;4963727;28;20078;-89
2022/06/25 11:18:16;;;;;;;9.70;2.17;;;;;;;34.44;36.23;100176.78;4953930;28;20126;-90
2022/06/25 11:20:42;;;;;;;11.20;2.58;;;;;;;33.97;37.67;100183.38;4960827;28;20041;-87
2022/06/25 11:23:16;;;;;;;11.52;2.10;;;;;;;33.65;37.99;100187.41;4971059;28;20455;-90
2022/06/25 11:28:48;;;;;;;7.57;2.60;;;;;;;32.34;40.12;100174.69;4975290;28;20121;-88
2022/06/25 11:31:22;;;;;;;8.68;2.00;;;;;;;32.31;39.82;100175.31;4988207;28;20048;-87
2022/06/25 11:33:50;;;;;;;9.95;2.17;;;;;;;32.03;40.78;100174.63;4970985;28;20038;-90
2022/06/25 11:36:16;;;;;;;17.23;2.35;;;;;;;31.40;41.61;100172.00;4982494;28;20061;-91
2022/06/25 11:38:50;;;;;;;10.57;2.42;;;;;;;30.90;43.29;100177.41;4985433;28;20038;-89
2022/06/25 11:41:26;;;;;;;13.77;2.50;;;;;;;30.87;43.74;100177.22;4960482;28;20150;-90
2022/06/25 11:43:51;;;;;;;11.70;2.50;;;;;;;30.64;43.79;100173.56;4970733;28;20452;-90
2022/06/25 11:46:18;;;;;;;10.63;2.15;;;;;;;30.84;43.43;100167.69;4983773;28;20066;-88
2022/06/25 11:48:47;;;;;;;21.92;2.67;;;;;;;31.18;43.86;100159.91;4956516;28;20068;-89
2022/06/25 11:51:24;;;;;;;5.63;2.13;;;;;;;31.46;42.83;100155.13;4980095;28;20081;-87
2022/06/25 11:53:51;;;;;;;7.30;2.08;;;;;;;31.36;42.00;100155.38;4990486;28;20035;-87
2022/06/25 11:56:17;;;;;;;10.75;2.05;;;;;;;31.32;42.30;100165.34;4979094;28;20549;-89
2022/06/25 11:58:44;;;;;;;11.35;2.15;;;;;;;30.94;43.15;100164.75;4988283;28;20043;-91
2022/06/25 12:01:18;;;;;;;18.42;2.83;;;;;;;31.03;42.78;100162.94;4973986;28;20064;-89
2022/06/25 12:03:44;;;;;;;12.55;2.10;;;;;;;30.96;42.11;100157.06;4964250;28;20035;-91
2022/06/25 12:06:10;;;;;;;8.32;2.00;;;;;;;30.89;42.28;100156.63;4975381;28;20530;-86
2022/06/25 12:08:39;;;;;;;10.07;3.40;;;;;;;30.95;41.47;100149.16;4973307;28;20060;-87
2022/06/25 12:11:05;;;;;;;10.45;2.10;;;;;;;31.05;41.83;100138.81;4964484;28;20392;-88